Terminal Aerodrome Forecast
Issued by NWS

Home | Current Version | Previous Version | Text Only | Print | Product List | Glossary On
Versions: 1 2 3 4 5 6 7 8 9 10 11 12 13 14 15
000
FTUS44 KEPZ 031100
TAFTCS
TAF
KTCS 031135Z 0312/0412 29006KT P6SM SKC
     FM032100 22011G21KT P6SM SKC
     FM040200 25008KT P6SM SKC=

USA.gov is the U.S. government's official web portal to all federal, state and local government web resources and services.